createdAt,value
2018-06-29T00:00:07.966Z,69.72
2018-06-29T00:02:36.209Z,69.26
2018-06-29T00:05:04.714Z,69.62
2018-06-29T00:07:32.946Z,69.31
2018-06-29T00:10:01.227Z,70.45
2018-06-29T00:12:29.506Z,68.61
2018-06-29T00:14:57.781Z,69.29
2018-06-29T00:17:26.029Z,69.68
2018-06-29T00:19:54.318Z,69.07
2018-06-29T00:22:22.617Z,67.93
2018-06-29T00:24:50.890Z,68.30
2018-06-29T00:27:19.118Z,67.56
2018-06-29T00:29:47.672Z,67.21
2018-06-29T00:32:15.911Z,67.16
2018-06-29T00:34:44.211Z,67.71
2018-06-29T00:37:12.619Z,67.11
2018-06-29T00:39:40.890Z,67.63
2018-06-29T00:42:09.186Z,67.85
2018-06-29T00:44:37.480Z,68.91
2018-06-29T00:47:05.807Z,68.35
2018-06-29T00:49:34.119Z,66.92
2018-06-29T00:52:02.367Z,68.35
2018-06-29T00:54:30.815Z,68.52
2018-06-29T00:56:59.053Z,68.71
2018-06-29T00:59:27.335Z,69.05
2018-06-29T01:01:55.635Z,69.63
2018-06-29T01:04:23.930Z,69.30
2018-06-29T01:06:52.158Z,69.00
2018-06-29T01:09:20.454Z,69.96
2018-06-29T01:11:48.686Z,68.65
2018-06-29T01:14:16.986Z,67.73
2018-06-29T01:16:45.302Z,67.84
2018-06-29T01:19:13.587Z,67.85
2018-06-29T01:21:41.829Z,67.97
2018-06-29T01:24:10.102Z,68.36
2018-06-29T01:26:38.374Z,68.29
2018-06-29T01:29:06.663Z,66.89
2018-06-29T01:31:35.195Z,66.77
2018-06-29T01:34:03.451Z,66.32
2018-06-29T01:36:31.760Z,67.42
2018-06-29T01:39:00.082Z,66.99
2018-06-29T01:41:28.386Z,66.78
2018-06-29T01:43:56.627Z,68.11
2018-06-29T01:46:24.904Z,68.26
2018-06-29T01:48:53.147Z,69.30
2018-06-29T01:51:21.435Z,69.99
2018-06-29T01:53:49.682Z,69.37
2018-06-29T01:56:17.972Z,69.29
2018-06-29T01:58:46.231Z,68.69
2018-06-29T02:01:14.506Z,69.00
2018-06-29T02:03:42.738Z,68.99
2018-06-29T02:06:11.034Z,69.13
2018-06-29T02:08:39.303Z,69.49
2018-06-29T02:11:07.820Z,68.07
2018-06-29T02:13:36.062Z,68.40
2018-06-29T02:16:04.347Z,67.83
2018-06-29T02:18:32.784Z,63.31
2018-06-29T02:21:01.034Z,62.67
2018-06-29T02:23:29.308Z,62.02
2018-06-29T02:25:57.647Z,62.62
2018-06-29T02:28:25.946Z,62.99
2018-06-29T02:30:54.371Z,63.25
2018-06-29T02:33:22.549Z,65.16
2018-06-29T02:35:50.894Z,65.17
2018-06-29T02:38:19.137Z,64.81
2018-06-29T02:40:47.434Z,63.52
2018-06-29T02:43:15.686Z,64.52
2018-06-29T02:45:44.082Z,65.41
2018-06-29T02:48:12.336Z,65.30
2018-06-29T02:50:40.654Z,66.21
2018-06-29T02:53:08.884Z,65.52
2018-06-29T02:55:37.171Z,65.04
2018-06-29T02:58:05.455Z,67.33
2018-06-29T03:00:33.763Z,65.69
2018-06-29T03:03:02.007Z,67.16
2018-06-29T03:05:30.298Z,68.39
2018-06-29T03:07:58.607Z,69.05
2018-06-29T03:10:26.875Z,69.29
2018-06-29T03:12:55.158Z,68.44
2018-06-29T03:15:23.395Z,68.57
2018-06-29T03:17:51.703Z,69.38
2018-06-29T03:20:20.373Z,70.06
2018-06-29T03:22:48.681Z,69.65
2018-06-29T03:25:17.027Z,68.58
2018-06-29T03:27:45.241Z,69.17
2018-06-29T03:30:13.525Z,68.70
2018-06-29T03:32:41.861Z,69.47
2018-06-29T03:35:10.115Z,68.74
2018-06-29T03:37:38.398Z,68.19
2018-06-29T03:40:06.657Z,68.84
2018-06-29T03:42:34.966Z,69.23
2018-06-29T03:45:03.235Z,69.38
2018-06-29T03:47:31.523Z,69.18
2018-06-29T03:49:59.773Z,69.63
2018-06-29T03:52:28.077Z,68.22
2018-06-29T03:54:56.354Z,69.94
2018-06-29T03:57:24.665Z,68.89
2018-06-29T03:59:52.921Z,69.63
2018-06-29T04:02:21.434Z,67.99
2018-06-29T04:04:49.687Z,68.78
2018-06-29T04:07:17.999Z,68.30
2018-06-29T04:09:46.285Z,67.10
2018-06-29T04:12:14.573Z,66.68
2018-06-29T04:14:42.817Z,66.84
2018-06-29T04:17:11.154Z,66.93
2018-06-29T04:19:39.414Z,66.69
2018-06-29T04:22:07.950Z,67.53
2018-06-29T04:24:36.221Z,67.26
2018-06-29T04:27:04.510Z,64.55
2018-06-29T04:29:32.789Z,65.74
2018-06-29T04:32:01.087Z,63.75
2018-06-29T04:34:29.327Z,64.59
2018-06-29T04:36:57.838Z,62.36
2018-06-29T04:39:26.123Z,63.18
2018-06-29T04:41:54.380Z,61.68
2018-06-29T04:44:22.655Z,60.34
2018-06-29T04:46:50.910Z,59.67
2018-06-29T04:49:19.216Z,59.73
2018-06-29T04:51:47.437Z,58.86
2018-06-29T04:54:15.738Z,58.41
2018-06-29T04:56:44.056Z,58.73
2018-06-29T04:59:12.397Z,59.01
2018-06-29T05:01:40.692Z,58.43
2018-06-29T05:04:09.029Z,59.08
2018-06-29T05:06:38.315Z,59.01
2018-06-29T05:09:07.511Z,58.72
2018-06-29T05:11:36.336Z,58.46
2018-06-29T05:14:04.650Z,58.89
2018-06-29T05:16:32.913Z,58.78
2018-06-29T05:19:01.262Z,57.82
2018-06-29T05:21:29.498Z,57.84
2018-06-29T05:23:57.794Z,57.78
2018-06-29T05:26:26.036Z,57.36
2018-06-29T05:28:54.622Z,58.28
2018-06-29T05:31:22.950Z,58.47
2018-06-29T05:33:51.255Z,58.79
2018-06-29T05:36:19.514Z,58.18
2018-06-29T05:38:47.803Z,58.26
2018-06-29T05:41:16.115Z,59.43
2018-06-29T05:43:44.434Z,56.49
2018-06-29T05:46:12.696Z,57.97
2018-06-29T05:48:41.123Z,57.35
2018-06-29T05:51:09.366Z,56.63
2018-06-29T05:53:37.633Z,57.33
2018-06-29T05:56:05.926Z,57.40
2018-06-29T05:58:34.275Z,57.88
2018-06-29T06:01:02.575Z,57.30
2018-06-29T06:03:30.924Z,56.41
2018-06-29T06:05:59.192Z,56.29
2018-06-29T06:08:27.488Z,55.26
2018-06-29T06:10:55.724Z,55.24
2018-06-29T06:13:24.309Z,53.77
2018-06-29T06:15:52.535Z,54.67
2018-06-29T06:18:20.810Z,53.88
2018-06-29T06:20:49.034Z,53.91
2018-06-29T06:23:18.893Z,54.72
2018-06-29T06:25:47.519Z,55.00
2018-06-29T06:28:15.994Z,54.31
2018-06-29T06:30:44.315Z,54.25
2018-06-29T06:33:12.749Z,55.25
2018-06-29T06:35:40.981Z,54.92
2018-06-29T06:38:09.222Z,55.11
2018-06-29T06:40:37.514Z,53.49
2018-06-29T06:43:06.106Z,54.12
2018-06-29T06:45:34.423Z,54.45
2018-06-29T06:48:02.769Z,53.91
2018-06-29T06:50:31.116Z,55.37
2018-06-29T06:52:59.370Z,54.72
2018-06-29T06:55:27.671Z,54.61
2018-06-29T06:57:55.919Z,54.16
2018-06-29T07:00:24.199Z,54.66
2018-06-29T07:02:52.499Z,54.68
2018-06-29T07:05:21.334Z,54.12
2018-06-29T07:07:49.577Z,54.14
2018-06-29T07:10:17.862Z,54.27
2018-06-29T07:12:46.128Z,54.46
2018-06-29T07:15:14.410Z,52.74
2018-06-29T07:17:42.704Z,52.50
2018-06-29T07:20:11.104Z,53.41
2018-06-29T07:22:39.366Z,52.45
2018-06-29T07:25:07.674Z,51.86
2018-06-29T07:27:36.001Z,51.71
2018-06-29T07:30:05.675Z,51.47
2018-06-29T07:32:34.011Z,52.35
2018-06-29T07:35:02.335Z,50.66
2018-06-29T07:37:30.706Z,51.34
2018-06-29T07:39:58.978Z,52.06
2018-06-29T07:42:27.276Z,51.71
2018-06-29T07:44:55.546Z,51.56
2018-06-29T07:47:23.773Z,52.72
2018-06-29T07:49:52.068Z,52.69
2018-06-29T07:52:20.315Z,51.87
2018-06-29T07:54:48.666Z,51.47
2018-06-29T07:57:16.919Z,51.37
2018-06-29T07:59:45.191Z,52.20
2018-06-29T08:02:13.421Z,51.54
2018-06-29T08:04:41.707Z,51.52
2018-06-29T08:07:10.222Z,51.34
2018-06-29T08:09:38.503Z,51.47
2018-06-29T08:12:06.740Z,52.16
2018-06-29T08:14:34.990Z,51.59
2018-06-29T08:17:03.363Z,51.29
2018-06-29T08:19:31.742Z,50.51
2018-06-29T08:22:00.170Z,51.23
2018-06-29T08:24:29.686Z,50.94
2018-06-29T08:26:57.991Z,50.42
2018-06-29T08:29:26.335Z,50.85
2018-06-29T08:31:54.703Z,50.12
2018-06-29T08:34:22.955Z,50.62
2018-06-29T08:36:51.282Z,50.23
2018-06-29T08:39:19.532Z,50.60
2018-06-29T08:41:47.855Z,49.30
2018-06-29T08:44:16.263Z,47.87
2018-06-29T08:46:44.725Z,48.38
2018-06-29T08:49:12.974Z,48.58
2018-06-29T08:51:41.311Z,48.39
2018-06-29T08:54:09.668Z,47.13
2018-06-29T08:56:38.199Z,47.42
2018-06-29T08:59:06.698Z,47.82
2018-06-29T09:01:35.050Z,46.85
2018-06-29T09:04:03.326Z,45.47
2018-06-29T09:06:32.438Z,46.45
2018-06-29T09:09:00.976Z,46.63
2018-06-29T09:11:29.309Z,47.17
2018-06-29T09:13:57.589Z,47.68
2018-06-29T09:16:25.943Z,46.42
2018-06-29T09:18:54.187Z,46.25
2018-06-29T09:21:22.471Z,46.59
2018-06-29T09:23:50.783Z,46.49
2018-06-29T09:26:19.146Z,45.86
2018-06-29T09:28:47.502Z,46.03
2018-06-29T09:31:15.803Z,46.22
2018-06-29T09:33:44.056Z,45.11
2018-06-29T09:36:12.331Z,45.75
2018-06-29T09:38:40.590Z,44.51
2018-06-29T09:41:09.202Z,45.71
2018-06-29T09:43:37.482Z,44.86
2018-06-29T09:46:05.879Z,44.63
2018-06-29T09:48:34.115Z,44.43
2018-06-29T09:51:02.414Z,43.64
2018-06-29T09:53:30.742Z,45.52
2018-06-29T09:55:59.030Z,45.01
2018-06-29T09:58:27.891Z,44.66
2018-06-29T10:00:56.278Z,45.82
2018-06-29T10:03:24.854Z,45.35
2018-06-29T10:05:53.249Z,45.48
2018-06-29T10:08:21.558Z,46.14
2018-06-29T10:10:49.878Z,44.87
2018-06-29T10:13:18.335Z,44.62
2018-06-29T10:15:46.590Z,44.23
2018-06-29T10:18:14.898Z,44.43
2018-06-29T10:20:43.263Z,44.87
2018-06-29T10:23:11.551Z,45.62
2018-06-29T10:25:39.809Z,45.29
2018-06-29T10:28:08.263Z,43.65
2018-06-29T10:30:36.563Z,44.39
2018-06-29T10:33:04.859Z,41.70
2018-06-29T10:35:33.108Z,42.87
2018-06-29T10:38:01.392Z,43.08
2018-06-29T10:40:29.674Z,41.85
2018-06-29T10:42:57.947Z,42.61
2018-06-29T10:45:26.194Z,43.46
2018-06-29T10:47:55.534Z,42.07
2018-06-29T10:50:23.788Z,41.00
2018-06-29T10:52:52.115Z,41.56
2018-06-29T10:55:20.353Z,41.36
2018-06-29T10:57:48.629Z,40.26
2018-06-29T11:00:16.906Z,38.77
2018-06-29T11:02:45.178Z,38.12
2018-06-29T11:05:13.486Z,38.50
2018-06-29T11:07:41.781Z,40.01
2018-06-29T11:10:10.046Z,40.51
2018-06-29T11:12:38.331Z,40.19
2018-06-29T11:15:06.586Z,40.81
2018-06-29T11:17:34.890Z,38.97
2018-06-29T11:20:04.632Z,40.13
2018-06-29T11:22:33.281Z,38.82
2018-06-29T11:25:01.542Z,39.13
2018-06-29T11:27:29.820Z,40.20
2018-06-29T11:29:58.466Z,39.58
2018-06-29T11:32:26.744Z,39.82
2018-06-29T11:34:55.064Z,40.51
2018-06-29T11:37:24.565Z,39.19
2018-06-29T11:39:53.170Z,40.03
2018-06-29T11:42:23.619Z,37.35
2018-06-29T11:44:52.746Z,38.28
2018-06-29T11:47:21.778Z,38.38
2018-06-29T11:49:51.162Z,39.21
2018-06-29T11:52:21.921Z,37.93
2018-06-29T11:54:54.083Z,40.55
2018-06-29T11:57:26.018Z,38.69
2018-06-29T11:59:56.925Z,37.78
2018-06-29T12:02:25.987Z,37.04
2018-06-29T12:04:59.024Z,36.62
2018-06-29T12:07:27.414Z,38.33
2018-06-29T12:09:56.173Z,36.47
2018-06-29T12:12:24.513Z,35.90
2018-06-29T12:14:52.973Z,35.26
2018-06-29T12:17:21.222Z,37.10
2018-06-29T12:19:49.486Z,37.19
2018-06-29T12:22:17.718Z,37.42
2018-06-29T12:24:46.074Z,37.80
2018-06-29T12:27:14.345Z,36.98
2018-06-29T12:29:42.667Z,36.43
2018-06-29T12:32:10.910Z,37.78
2018-06-29T12:34:39.198Z,38.67
2018-06-29T12:37:07.459Z,38.56
2018-06-29T12:39:35.748Z,37.32
2018-06-29T12:42:04.042Z,38.22
2018-06-29T12:44:32.330Z,37.40
2018-06-29T12:47:00.621Z,36.70
2018-06-29T12:49:28.898Z,37.18
2018-06-29T12:51:57.403Z,35.91
2018-06-29T12:54:25.708Z,36.80
2018-06-29T12:56:54.170Z,36.05
2018-06-29T12:59:22.461Z,36.89
2018-06-29T13:01:50.706Z,36.05
2018-06-29T13:04:19.060Z,34.67
2018-06-29T13:06:47.370Z,34.09
2018-06-29T13:09:15.731Z,33.86
2018-06-29T13:11:43.994Z,33.98
2018-06-29T13:14:12.499Z,35.01
2018-06-29T13:16:40.730Z,34.25
2018-06-29T13:19:09.194Z,34.88
2018-06-29T13:21:37.622Z,35.30
2018-06-29T13:24:06.160Z,34.02
2018-06-29T13:26:34.452Z,35.32
2018-06-29T13:29:02.783Z,34.06
2018-06-29T13:31:31.094Z,34.42
2018-06-29T13:33:59.476Z,34.98
2018-06-29T13:36:27.827Z,33.87
2018-06-29T13:38:56.151Z,34.66
2018-06-29T13:41:24.426Z,33.57
2018-06-29T13:43:52.746Z,34.09
2018-06-29T13:46:21.102Z,32.81
2018-06-29T13:48:49.406Z,33.89
2018-06-29T13:51:17.639Z,35.19
2018-06-29T13:53:45.926Z,33.18
2018-06-29T13:56:14.759Z,32.71
2018-06-29T13:58:43.034Z,33.27
2018-06-29T14:01:11.374Z,32.96
2018-06-29T14:03:39.651Z,31.59
2018-06-29T14:06:08.258Z,30.82
2018-06-29T14:08:36.576Z,31.86
2018-06-29T14:11:04.871Z,32.37
2018-06-29T14:13:33.115Z,32.65
2018-06-29T14:16:01.463Z,33.23
2018-06-29T14:18:29.799Z,33.50
2018-06-29T14:20:58.927Z,33.38
2018-06-29T14:23:27.234Z,32.89
2018-06-29T14:25:55.514Z,34.18
2018-06-29T14:28:23.754Z,32.16
2018-06-29T14:30:53.132Z,31.88
2018-06-29T14:33:21.432Z,32.38
2018-06-29T14:35:49.979Z,31.71
2018-06-29T14:38:18.242Z,32.00
2018-06-29T14:40:46.642Z,32.51
2018-06-29T14:43:14.886Z,33.05
2018-06-29T14:45:43.159Z,33.50
2018-06-29T14:48:11.428Z,32.65
2018-06-29T14:50:40.026Z,33.29
2018-06-29T14:53:08.376Z,30.94
2018-06-29T14:55:36.751Z,30.71
2018-06-29T14:58:05.058Z,29.96
2018-06-29T15:00:33.611Z,31.28
2018-06-29T15:03:02.134Z,31.77
2018-06-29T15:05:30.383Z,31.52
2018-06-29T15:07:58.669Z,31.61
2018-06-29T15:10:26.955Z,31.66
2018-06-29T15:12:55.199Z,31.64
2018-06-29T15:15:23.462Z,30.90
2018-06-29T15:17:51.737Z,31.26
2018-06-29T15:20:20.015Z,31.94
2018-06-29T15:22:48.283Z,33.05
2018-06-29T15:25:16.952Z,33.13
2018-06-29T15:27:45.127Z,32.80
2018-06-29T15:30:13.440Z,33.43
2018-06-29T15:32:41.694Z,31.46
2018-06-29T15:35:09.975Z,30.60
2018-06-29T15:37:38.231Z,31.45
2018-06-29T15:40:06.556Z,32.52
2018-06-29T15:42:36.812Z,33.43
2018-06-29T15:45:05.431Z,32.96
2018-06-29T15:47:33.672Z,32.57
2018-06-29T15:50:02.025Z,33.13
2018-06-29T15:52:30.282Z,32.16
2018-06-29T15:54:58.603Z,31.52
2018-06-29T15:57:26.883Z,32.26
2018-06-29T15:59:55.126Z,32.56
2018-06-29T16:02:23.796Z,32.54
2018-06-29T16:04:52.394Z,34.02
2018-06-29T16:07:20.682Z,31.98
2018-06-29T16:09:48.930Z,31.97
2018-06-29T16:12:17.236Z,32.17
2018-06-29T16:14:45.495Z,32.58
2018-06-29T16:17:13.806Z,32.37
2018-06-29T16:19:42.098Z,32.16
2018-06-29T16:22:10.430Z,31.93
2018-06-29T16:24:38.674Z,31.88
2018-06-29T16:27:06.972Z,33.21
2018-06-29T16:29:35.471Z,33.95
2018-06-29T16:32:03.758Z,33.55
2018-06-29T16:34:32.111Z,32.93
2018-06-29T16:37:00.406Z,32.94
2018-06-29T16:39:28.671Z,32.84
2018-06-29T16:41:56.954Z,33.22
2018-06-29T16:44:25.690Z,32.32
2018-06-29T16:46:54.010Z,32.36
2018-06-29T16:49:22.282Z,33.71
2018-06-29T16:51:50.576Z,32.79
2018-06-29T16:54:18.830Z,30.47
2018-06-29T16:56:47.291Z,30.63
2018-06-29T16:59:15.535Z,30.11
2018-06-29T17:01:43.821Z,31.14
2018-06-29T17:04:13.805Z,31.01
2018-06-29T17:06:42.094Z,31.18
2018-06-29T17:09:10.603Z,29.38
2018-06-29T17:11:39.111Z,29.97
2018-06-29T17:14:07.547Z,30.64
2018-06-29T17:16:36.102Z,29.90
2018-06-29T17:19:04.571Z,31.82
2018-06-29T17:21:32.850Z,30.05
2018-06-29T17:24:01.341Z,31.57
2018-06-29T17:26:30.003Z,33.41
2018-06-29T17:28:58.532Z,30.98
2018-06-29T17:31:26.716Z,31.47
2018-06-29T17:33:55.005Z,31.74
2018-06-29T17:36:23.248Z,31.34
2018-06-29T17:38:51.575Z,32.88
2018-06-29T17:41:19.965Z,33.42
2018-06-29T17:43:48.406Z,32.48
2018-06-29T17:46:16.650Z,31.81
2018-06-29T17:48:45.928Z,32.08
2018-06-29T17:51:14.283Z,33.03
2018-06-29T17:53:42.650Z,34.48
2018-06-29T17:56:11.026Z,35.07
2018-06-29T17:58:39.468Z,34.95
2018-06-29T18:01:08.061Z,34.99
2018-06-29T18:03:36.535Z,34.65
2018-06-29T18:06:05.214Z,34.83
2018-06-29T18:08:33.718Z,36.38
2018-06-29T18:11:01.982Z,35.36
2018-06-29T18:16:22.748Z,36.75
2018-06-29T18:18:51.059Z,37.33
2018-06-29T18:21:19.364Z,37.76
2018-06-29T18:23:47.770Z,38.54
2018-06-29T18:26:16.252Z,39.87
2018-06-29T18:28:44.552Z,39.82
2018-06-29T18:31:13.088Z,39.60
2018-06-29T18:33:41.583Z,39.58
2018-06-29T18:36:11.280Z,40.15
2018-06-29T18:38:40.129Z,41.17
2018-06-29T18:41:08.708Z,41.02
2018-06-29T18:43:37.405Z,43.40
2018-06-29T18:46:06.355Z,44.87
2018-06-29T18:48:34.941Z,44.90
2018-06-29T18:51:03.693Z,44.71
2018-06-29T18:53:32.421Z,45.02
2018-06-29T18:56:00.988Z,45.63
2018-06-29T18:58:29.586Z,45.94
2018-06-29T19:00:59.057Z,45.97
2018-06-29T19:03:27.890Z,46.11
2018-06-29T19:05:56.730Z,47.09
2018-06-29T19:08:25.323Z,47.81
2018-06-29T19:10:53.629Z,47.93
2018-06-29T19:13:22.021Z,48.00
2018-06-29T19:15:50.463Z,47.79
2018-06-29T19:18:18.781Z,47.96
2018-06-29T19:20:47.143Z,48.45
2018-06-29T19:23:15.558Z,48.52
2018-06-29T19:25:44.018Z,48.67
2018-06-29T19:28:12.873Z,49.21
2018-06-29T19:30:41.385Z,49.98
2018-06-29T19:33:09.830Z,49.73
2018-06-29T19:35:38.209Z,49.59
2018-06-29T19:38:07.051Z,49.85
2018-06-29T19:40:36.101Z,50.77
2018-06-29T19:43:04.949Z,50.67
2018-06-29T19:45:33.550Z,50.06
2018-06-29T19:48:02.073Z,50.07
2018-06-29T19:50:30.859Z,49.71
2018-06-29T19:52:59.784Z,50.46
2018-06-29T19:55:29.458Z,51.05
2018-06-29T19:57:58.018Z,51.45
2018-06-29T20:00:28.566Z,51.52
2018-06-29T20:02:57.250Z,50.18
2018-06-29T20:05:25.634Z,51.12
2018-06-29T20:07:53.953Z,50.64
2018-06-29T20:10:22.299Z,51.56
2018-06-29T20:12:50.607Z,50.80
2018-06-29T20:15:19.028Z,51.14
2018-06-29T20:17:47.567Z,50.48
2018-06-29T20:20:16.192Z,51.45
2018-06-29T20:22:44.427Z,51.56
2018-06-29T20:25:12.752Z,52.70
2018-06-29T20:27:41.014Z,51.65
2018-06-29T20:30:10.734Z,52.20
2018-06-29T20:32:39.074Z,52.92
2018-06-29T20:35:07.367Z,53.99
2018-06-29T20:37:35.636Z,53.84
2018-06-29T20:40:04.015Z,54.09
2018-06-29T20:42:33.014Z,55.95
2018-06-29T20:45:01.354Z,58.03
2018-06-29T20:47:29.685Z,58.81
2018-06-29T20:49:58.171Z,59.99
2018-06-29T20:52:26.453Z,61.33
2018-06-29T20:54:54.813Z,62.69
2018-06-29T20:57:23.219Z,63.01
2018-06-29T20:59:51.590Z,62.56
2018-06-29T21:02:19.832Z,62.96
2018-06-29T21:04:48.189Z,63.23
2018-06-29T21:07:16.390Z,63.65
2018-06-29T21:09:44.700Z,63.99
2018-06-29T21:12:13.085Z,64.78
2018-06-29T21:14:42.462Z,64.79
2018-06-29T21:17:10.851Z,65.62
2018-06-29T21:19:39.118Z,66.66
2018-06-29T21:22:07.467Z,66.18
2018-06-29T21:24:35.822Z,67.01
2018-06-29T21:27:04.198Z,65.77
2018-06-29T21:29:32.549Z,66.79
2018-06-29T21:32:00.878Z,66.52
2018-06-29T21:34:29.204Z,66.99
2018-06-29T21:36:57.629Z,68.21
2018-06-29T21:39:25.874Z,67.74
2018-06-29T21:41:54.187Z,68.71
2018-06-29T21:44:22.462Z,68.61
2018-06-29T21:46:50.744Z,68.66
2018-06-29T21:49:19.043Z,68.63
2018-06-29T21:51:47.435Z,68.99
2018-06-29T21:54:15.718Z,70.08
2018-06-29T21:56:43.999Z,68.38
2018-06-29T21:59:12.315Z,69.73
2018-06-29T22:01:40.638Z,70.06
2018-06-29T22:04:09.047Z,70.98
2018-06-29T22:06:37.331Z,70.31
2018-06-29T22:09:07.606Z,70.50
2018-06-29T22:11:35.932Z,70.88
2018-06-29T22:14:04.298Z,71.16
2018-06-29T22:16:32.606Z,70.89
2018-06-29T22:19:01.518Z,71.42
2018-06-29T22:21:29.868Z,71.34
2018-06-29T22:23:58.136Z,69.75
2018-06-29T22:26:26.423Z,70.50
2018-06-29T22:28:54.831Z,69.80
2018-06-29T22:31:23.154Z,69.96
2018-06-29T22:33:51.547Z,71.75
2018-06-29T22:36:19.816Z,72.16
2018-06-29T22:38:48.074Z,72.47
2018-06-29T22:41:16.531Z,72.63
2018-06-29T22:43:44.891Z,72.05
2018-06-29T22:46:13.327Z,73.14
2018-06-29T22:48:41.583Z,72.67
2018-06-29T22:51:10.091Z,72.42
2018-06-29T22:53:38.329Z,72.72
2018-06-29T22:56:06.614Z,73.47
2018-06-29T22:58:34.850Z,72.49
2018-06-29T23:01:03.216Z,73.27
2018-06-29T23:03:36.624Z,72.18
2018-06-29T23:06:05.094Z,71.79
2018-06-29T23:08:33.391Z,71.94
2018-06-29T23:11:01.675Z,72.83
2018-06-29T23:13:29.923Z,72.45
2018-06-29T23:15:58.209Z,71.95
2018-06-29T23:18:26.602Z,72.63
2018-06-29T23:20:54.927Z,73.51
2018-06-29T23:23:23.254Z,73.00
2018-06-29T23:25:51.550Z,73.96
2018-06-29T23:28:19.853Z,73.49
2018-06-29T23:30:48.172Z,73.37
2018-06-29T23:33:16.490Z,72.71
2018-06-29T23:35:44.731Z,72.07
2018-06-29T23:38:13.067Z,73.34
2018-06-29T23:40:41.304Z,73.84
2018-06-29T23:43:09.715Z,73.41
2018-06-29T23:45:37.946Z,73.16
2018-06-29T23:48:06.246Z,73.71
2018-06-29T23:50:34.474Z,73.94
2018-06-29T23:53:02.850Z,74.13
2018-06-29T23:55:31.114Z,75.14
2018-06-29T23:57:59.515Z,75.67
